Time;durP1;ratioP1;P1;durP2;ratioP2;P2;SDS_P1;SDS_P2;PMS_P1;PMS_P2;Temp;Humidity;BMP_temperature;BMP_pressure;BME280_temperature;BME280_humidity;BME280_pressure;Samples;Min_cycle;Max_cycle;Signal;HPM_P1;HPM_P2
2021/05/27 00:00:54;;;;;;;;;;;10.10;99.90;;;;;;5077127;28;19916;-84
2021/05/27 00:03:20;;;;;;;;;;;10.10;99.90;;;;;;5074306;28;19958;-85
2021/05/27 00:05:45;;;;;;;;;;;9.90;99.90;;;;;;5081953;28;19908;-84
2021/05/27 00:08:11;;;;;;;;;;;9.90;99.90;;;;;;5071341;28;19940;-84
2021/05/27 00:10:37;;;;;;;;;;;9.90;99.90;;;;;;5087479;28;20763;-84
2021/05/27 00:13:03;;;;;;;;;;;9.90;99.90;;;;;;5088610;28;19909;-84
2021/05/27 00:15:29;;;;;;;;;;;9.90;99.90;;;;;;5060261;28;19927;-84
2021/05/27 00:17:56;;;;;;;;;;;9.90;99.90;;;;;;5091271;28;19920;-85
2021/05/27 00:20:22;;;;;;;;;;;9.80;99.90;;;;;;5090407;28;20004;-85
2021/05/27 00:22:47;;;;;;;;;;;9.80;99.90;;;;;;5071259;28;20662;-85
2021/05/27 00:25:13;;;;;;;;;;;9.80;99.90;;;;;;5089726;28;19991;-85
2021/05/27 00:27:43;;;;;;;;;;;9.80;99.90;;;;;;5086753;28;19995;-85
2021/05/27 00:30:09;;;;;;;;;;;9.80;99.90;;;;;;5083921;28;20283;-85
2021/05/27 00:32:34;;;;;;;;;;;9.70;99.90;;;;;;5082859;28;19919;-84
2021/05/27 00:35:00;;;;;;;;;;;9.60;99.90;;;;;;5073762;28;19908;-85
2021/05/27 00:37:26;;;;;;;;;;;9.70;99.90;;;;;;5090053;28;19916;-84
2021/05/27 00:39:51;;;;;;;;;;;9.60;99.90;;;;;;5091157;28;20004;-85
2021/05/27 00:42:17;;;;;;;;;;;9.60;99.90;;;;;;5074884;28;20279;-85
2021/05/27 00:44:43;;;;;;;;;;;9.50;99.90;;;;;;5082291;28;19912;-85
2021/05/27 00:47:09;;;;;;;;;;;9.40;99.90;;;;;;5078056;28;19915;-85
2021/05/27 00:49:35;;;;;;;;;;;9.40;99.90;;;;;;5080232;28;20364;-85
2021/05/27 00:52:01;;;;;;;;;;;9.40;99.90;;;;;;5072903;28;19962;-83
2021/05/27 00:54:27;;;;;;;;;;;9.40;99.90;;;;;;5068468;28;19912;-84
2021/05/27 00:56:52;;;;;;;;;;;9.40;99.90;;;;;;5049683;28;19908;-84
2021/05/27 00:59:19;;;;;;;;;;;9.30;99.90;;;;;;5086771;28;19916;-84
2021/05/27 01:01:45;;;;;;;;;;;9.30;99.90;;;;;;5075942;28;19916;-83
2021/05/27 01:04:10;;;;;;;;;;;9.20;99.90;;;;;;5081724;28;19934;-83
2021/05/27 01:06:36;;;;;;;;;;;9.10;99.90;;;;;;5075964;28;19912;-84
2021/05/27 01:09:03;;;;;;;;;;;9.00;99.90;;;;;;5075537;28;20292;-83
2021/05/27 01:11:29;;;;;;;;;;;9.00;99.90;;;;;;5087503;28;19916;-84
2021/05/27 01:13:55;;;;;;;;;;;9.00;99.90;;;;;;5087671;28;20722;-84
2021/05/27 01:16:21;;;;;;;;;;;9.00;99.90;;;;;;5079670;28;20003;-84
2021/05/27 01:18:47;;;;;;;;;;;8.90;99.90;;;;;;5069480;28;19922;-84
2021/05/27 01:21:13;;;;;;;;;;;8.90;99.90;;;;;;5080620;28;19991;-84
2021/05/27 01:23:39;;;;;;;;;;;8.90;99.90;;;;;;5090594;28;19908;-84
2021/05/27 01:26:06;;;;;;;;;;;8.90;99.90;;;;;;5087725;28;19916;-84
2021/05/27 01:28:33;;;;;;;;;;;8.90;99.90;;;;;;5071271;28;19916;-84
2021/05/27 01:31:00;;;;;;;;;;;8.90;99.90;;;;;;5076537;28;20390;-84
2021/05/27 01:33:26;;;;;;;;;;;8.80;99.90;;;;;;5077114;28;20308;-84
2021/05/27 01:35:54;;;;;;;;;;;8.70;99.90;;;;;;5081718;28;19908;-84
2021/05/27 01:38:23;;;;;;;;;;;8.60;99.90;;;;;;5075352;28;20296;-84
2021/05/27 01:40:50;;;;;;;;;;;8.40;99.90;;;;;;5077796;28;19916;-85
2021/05/27 01:43:15;;;;;;;;;;;8.40;99.90;;;;;;5078768;28;20381;-85
2021/05/27 01:45:42;;;;;;;;;;;8.40;99.90;;;;;;5084544;28;20053;-85
2021/05/27 01:48:08;;;;;;;;;;;8.50;99.90;;;;;;5072185;28;20046;-85
2021/05/27 01:50:34;;;;;;;;;;;8.60;99.90;;;;;;5074816;28;20003;-85
2021/05/27 01:53:00;;;;;;;;;;;8.50;99.90;;;;;;5073203;28;20021;-84
2021/05/27 01:55:26;;;;;;;;;;;8.50;99.90;;;;;;5077806;28;19952;-84
2021/05/27 01:57:52;;;;;;;;;;;8.60;99.90;;;;;;5064277;28;19989;-83
2021/05/27 02:00:18;;;;;;;;;;;8.50;99.90;;;;;;5083535;28;20057;-84
2021/05/27 02:02:44;;;;;;;;;;;8.50;99.90;;;;;;5075141;28;19912;-84
2021/05/27 02:05:10;;;;;;;;;;;8.40;99.90;;;;;;5075043;28;19904;-84
2021/05/27 02:07:35;;;;;;;;;;;8.30;99.90;;;;;;5081432;28;19923;-84
2021/05/27 02:10:01;;;;;;;;;;;8.20;99.90;;;;;;5073337;28;19908;-84
2021/05/27 02:12:28;;;;;;;;;;;8.20;99.90;;;;;;5084135;28;19916;-85
2021/05/27 02:14:53;;;;;;;;;;;8.20;99.90;;;;;;5085224;28;19908;-84
2021/05/27 02:17:19;;;;;;;;;;;8.30;99.90;;;;;;5072313;28;19914;-85
2021/05/27 02:19:45;;;;;;;;;;;8.20;99.90;;;;;;5088853;28;20302;-84
2021/05/27 02:22:10;;;;;;;;;;;8.30;99.90;;;;;;5078694;28;20680;-85
2021/05/27 02:24:36;;;;;;;;;;;8.40;99.90;;;;;;5084929;28;19912;-85
2021/05/27 02:27:02;;;;;;;;;;;8.40;99.90;;;;;;5070391;28;20736;-87
2021/05/27 02:29:27;;;;;;;;;;;8.30;99.90;;;;;;5074087;28;19912;-84
2021/05/27 02:31:53;;;;;;;;;;;8.30;99.90;;;;;;5070563;28;20375;-83
2021/05/27 02:34:18;;;;;;;;;;;8.30;99.90;;;;;;5077742;28;19934;-83
2021/05/27 02:36:44;;;;;;;;;;;8.10;99.90;;;;;;5086228;28;19923;-84
2021/05/27 02:39:10;;;;;;;;;;;8.10;99.90;;;;;;5072125;28;20438;-84
2021/05/27 02:41:35;;;;;;;;;;;8.10;99.90;;;;;;5087717;28;19912;-83
2021/05/27 02:44:01;;;;;;;;;;;8.10;99.90;;;;;;5054987;28;19995;-84
2021/05/27 02:46:27;;;;;;;;;;;8.00;99.90;;;;;;5068339;28;19912;-84
2021/05/27 02:48:53;;;;;;;;;;;8.00;99.90;;;;;;5072299;28;19924;-85
2021/05/27 02:51:18;;;;;;;;;;;8.00;99.90;;;;;;5077469;28;19908;-83
2021/05/27 02:53:44;;;;;;;;;;;7.90;99.90;;;;;;5072333;28;19909;-84
2021/05/27 02:56:09;;;;;;;;;;;8.00;99.90;;;;;;5066622;28;19908;-84
2021/05/27 02:58:35;;;;;;;;;;;8.00;99.90;;;;;;5074324;28;19908;-85
2021/05/27 03:01:01;;;;;;;;;;;7.90;99.90;;;;;;5087752;28;20390;-84
2021/05/27 03:03:26;;;;;;;;;;;7.90;99.90;;;;;;5087339;28;19919;-84
2021/05/27 03:05:52;;;;;;;;;;;7.90;99.90;;;;;;5072804;28;19923;-85
2021/05/27 03:08:18;;;;;;;;;;;7.80;99.90;;;;;;5076700;28;20491;-84
2021/05/27 03:10:44;;;;;;;;;;;7.70;99.90;;;;;;5078242;28;19912;-85
2021/05/27 03:13:09;;;;;;;;;;;7.90;99.90;;;;;;5075192;28;19904;-83
2021/05/27 03:15:35;;;;;;;;;;;8.00;99.90;;;;;;5075345;28;20009;-84
2021/05/27 03:18:02;;;;;;;;;;;8.10;99.90;;;;;;5075856;28;19915;-84
2021/05/27 03:20:28;;;;;;;;;;;7.90;99.90;;;;;;5077352;28;19947;-84
2021/05/27 03:22:53;;;;;;;;;;;7.80;99.90;;;;;;5076295;28;19955;-84
2021/05/27 03:25:19;;;;;;;;;;;7.80;99.90;;;;;;5086074;28;19912;-86
2021/05/27 03:27:45;;;;;;;;;;;7.70;99.90;;;;;;5069298;28;19920;-86
2021/05/27 03:30:11;;;;;;;;;;;7.80;99.90;;;;;;5067404;28;19908;-87
2021/05/27 03:32:36;;;;;;;;;;;8.00;99.90;;;;;;5085831;28;20333;-86
2021/05/27 03:35:02;;;;;;;;;;;7.90;99.90;;;;;;5073710;28;19950;-85
2021/05/27 03:37:29;;;;;;;;;;;7.90;99.90;;;;;;5075051;28;20003;-85
2021/05/27 03:40:14;;;;;;;;;;;8.00;99.90;;;;;;5070504;28;19912;-85
2021/05/27 03:42:42;;;;;;;;;;;7.90;99.90;;;;;;5075983;28;19914;-85
2021/05/27 03:45:09;;;;;;;;;;;7.80;99.90;;;;;;5079571;28;20592;-85
2021/05/27 03:47:35;;;;;;;;;;;7.80;99.90;;;;;;5070720;28;19924;-85
2021/05/27 03:50:00;;;;;;;;;;;7.80;99.90;;;;;;5051921;28;19920;-84
2021/05/27 03:52:26;;;;;;;;;;;7.90;99.90;;;;;;5066277;28;19977;-84
2021/05/27 03:54:51;;;;;;;;;;;7.90;99.90;;;;;;5060624;28;20335;-84
2021/05/27 03:57:17;;;;;;;;;;;7.90;99.90;;;;;;5062063;28;19962;-85
2021/05/27 04:02:27;;;;;;;;;;;7.60;99.90;;;;;;5078602;28;19975;-84
2021/05/27 04:07:37;;;;;;;;;;;7.50;99.90;;;;;;5061742;28;19966;-84
2021/05/27 04:10:03;;;;;;;;;;;7.50;99.90;;;;;;5075891;28;19912;-85
2021/05/27 04:12:47;;;;;;;;;;;7.50;99.90;;;;;;5071441;28;19919;-84
2021/05/27 04:15:24;;;;;;;;;;;7.60;99.90;;;;;;5089370;28;20000;-85
2021/05/27 04:17:53;;;;;;;;;;;7.60;99.90;;;;;;5087004;28;19916;-85
2021/05/27 04:20:20;;;;;;;;;;;7.50;99.90;;;;;;5084823;28;19912;-85
2021/05/27 04:22:49;;;;;;;;;;;7.50;99.90;;;;;;5086858;28;19919;-84
2021/05/27 04:25:15;;;;;;;;;;;7.50;99.90;;;;;;5079559;28;20287;-83
2021/05/27 04:27:41;;;;;;;;;;;7.40;99.90;;;;;;5075710;28;19919;-84
2021/05/27 04:30:14;;;;;;;;;;;7.70;99.90;;;;;;5072292;28;19908;-84
2021/05/27 04:32:54;;;;;;;;;;;8.10;99.90;;;;;;5087571;28;19967;-84
2021/05/27 04:35:40;;;;;;;;;;;8.40;99.90;;;;;;5076864;28;19912;-84
2021/05/27 04:38:09;;;;;;;;;;;8.70;99.90;;;;;;5079979;28;19919;-85
2021/05/27 04:40:37;;;;;;;;;;;9.00;99.90;;;;;;5080696;28;20476;-84
2021/05/27 04:43:03;;;;;;;;;;;9.50;99.90;;;;;;5075241;28;19962;-85
2021/05/27 04:45:29;;;;;;;;;;;9.70;99.90;;;;;;5077133;28;20702;-85
2021/05/27 04:47:55;;;;;;;;;;;10.00;99.90;;;;;;5081673;28;20023;-85
2021/05/27 04:50:24;;;;;;;;;;;10.40;99.90;;;;;;5065807;28;20303;-84
2021/05/27 04:52:50;;;;;;;;;;;10.60;99.90;;;;;;5083179;28;20058;-85
2021/05/27 04:55:16;;;;;;;;;;;10.80;99.90;;;;;;5065987;28;20763;-84
2021/05/27 04:57:42;;;;;;;;;;;10.70;99.90;;;;;;5069660;28;19916;-84
2021/05/27 05:00:09;;;;;;;;;;;11.00;99.90;;;;;;5071901;28;20485;-85
2021/05/27 05:02:35;;;;;;;;;;;11.40;99.90;;;;;;5078996;28;20372;-85
2021/05/27 05:05:01;;;;;;;;;;;11.60;99.90;;;;;;5075889;28;19920;-84
2021/05/27 05:07:26;;;;;;;;;;;11.40;99.90;;;;;;5080987;28;20392;-84
2021/05/27 05:09:52;;;;;;;;;;;11.70;99.90;;;;;;5084574;28;19919;-83
2021/05/27 05:12:18;;;;;;;;;;;11.90;99.90;;;;;;5082901;28;20441;-84
2021/05/27 05:14:43;;;;;;;;;;;11.80;99.90;;;;;;5082726;28;20287;-84
2021/05/27 05:17:20;;;;;;;;;;;12.40;99.90;;;;;;5083920;28;19916;-85
2021/05/27 05:20:08;;;;;;;;;;;12.60;99.90;;;;;;5065335;28;20010;-84
2021/05/27 05:22:47;;;;;;;;;;;12.50;99.90;;;;;;5090825;28;20272;-84
2021/05/27 05:25:13;;;;;;;;;;;12.50;99.90;;;;;;5073370;28;19920;-85
2021/05/27 05:27:40;;;;;;;;;;;12.70;99.90;;;;;;5071181;28;19913;-86
2021/05/27 05:30:09;;;;;;;;;;;12.80;99.90;;;;;;5089064;28;19915;-85
2021/05/27 05:32:39;;;;;;;;;;;13.80;99.90;;;;;;5071133;28;20496;-84
2021/05/27 05:35:06;;;;;;;;;;;13.40;99.90;;;;;;5083521;28;19923;-83
2021/05/27 05:37:32;;;;;;;;;;;13.40;99.90;;;;;;5072392;28;19909;-85
2021/05/27 05:39:58;;;;;;;;;;;13.30;99.90;;;;;;5079442;28;19912;-84
2021/05/27 05:42:23;;;;;;;;;;;13.80;99.90;;;;;;5084138;28;19918;-81
2021/05/27 05:44:49;;;;;;;;;;;14.00;99.90;;;;;;5067467;28;20299;-83
2021/05/27 05:47:14;;;;;;;;;;;14.20;99.90;;;;;;5069726;28;19934;-82
2021/05/27 05:49:40;;;;;;;;;;;15.00;99.90;;;;;;5066075;28;19909;-82
2021/05/27 05:52:06;;;;;;;;;;;15.10;99.90;;;;;;5049981;28;19920;-83
2021/05/27 05:54:32;;;;;;;;;;;15.30;99.90;;;;;;5086137;28;19912;-83
2021/05/27 05:56:57;;;;;;;;;;;15.20;99.90;;;;;;5070086;28;19943;-83
2021/05/27 05:59:23;;;;;;;;;;;15.60;99.90;;;;;;5074141;28;19947;-83
2021/05/27 06:01:49;;;;;;;;;;;15.90;99.90;;;;;;5077009;28;20006;-83
2021/05/27 06:04:14;;;;;;;;;;;15.90;99.90;;;;;;5056198;28;19995;-82
2021/05/27 06:06:40;;;;;;;;;;;16.00;99.90;;;;;;5054912;28;20291;-83
2021/05/27 06:09:06;;;;;;;;;;;16.40;99.90;;;;;;5073682;28;19914;-83
2021/05/27 06:11:32;;;;;;;;;;;16.00;99.90;;;;;;5072083;28;19965;-83
2021/05/27 06:13:58;;;;;;;;;;;15.70;99.90;;;;;;5078335;28;19917;-83
2021/05/27 06:16:24;;;;;;;;;;;15.80;99.90;;;;;;5053297;28;19955;-83
2021/05/27 06:18:51;;;;;;;;;;;15.90;99.90;;;;;;5081123;28;20546;-84
2021/05/27 06:21:18;;;;;;;;;;;16.10;99.90;;;;;;5063336;28;19961;-83
2021/05/27 06:23:44;;;;;;;;;;;16.40;99.90;;;;;;5065983;28;19916;-83
2021/05/27 06:26:11;;;;;;;;;;;16.40;99.90;;;;;;5074839;28;19916;-83
2021/05/27 06:28:37;;;;;;;;;;;16.80;99.90;;;;;;5078581;28;19907;-83
2021/05/27 06:31:05;;;;;;;;;;;17.10;99.90;;;;;;5080934;28;20604;-83
2021/05/27 06:33:39;;;;;;;;;;;16.80;99.90;;;;;;5080043;28;19927;-83
2021/05/27 06:36:06;;;;;;;;;;;17.00;99.90;;;;;;5078763;28;19946;-83
2021/05/27 06:38:32;;;;;;;;;;;17.20;99.90;;;;;;5075251;28;19908;-83
2021/05/27 06:40:58;;;;;;;;;;;17.00;99.90;;;;;;5076834;28;19912;-82
2021/05/27 06:43:27;;;;;;;;;;;17.60;99.90;;;;;;5085217;28;20417;-83
2021/05/27 06:45:57;;;;;;;;;;;17.80;99.90;;;;;;5073168;28;19916;-83
2021/05/27 06:48:23;;;;;;;;;;;18.70;99.90;;;;;;5068021;28;19995;-83
2021/05/27 06:50:49;;;;;;;;;;;18.10;99.90;;;;;;5077661;28;19912;-85
2021/05/27 06:53:16;;;;;;;;;;;18.90;99.90;;;;;;5077585;28;19927;-85
2021/05/27 06:55:42;;;;;;;;;;;19.20;99.90;;;;;;5068892;28;19908;-84
2021/05/27 06:58:07;;;;;;;;;;;19.20;99.90;;;;;;5082702;28;19913;-84
2021/05/27 07:00:34;;;;;;;;;;;19.80;99.90;;;;;;5079524;28;19919;-86
2021/05/27 07:03:00;;;;;;;;;;;20.20;99.90;;;;;;5072121;28;20588;-85
2021/05/27 07:05:28;;;;;;;;;;;20.30;99.90;;;;;;5073232;28;19938;-83
2021/05/27 07:07:54;;;;;;;;;;;21.90;99.90;;;;;;5066724;28;20292;-84
2021/05/27 07:10:19;;;;;;;;;;;21.90;99.90;;;;;;5065581;28;19919;-83
2021/05/27 07:12:50;;;;;;;;;;;21.40;99.90;;;;;;5067524;28;19938;-82
2021/05/27 07:15:19;;;;;;;;;;;20.60;99.90;;;;;;5064427;28;20600;-82
2021/05/27 07:17:51;;;;;;;;;;;22.00;99.90;;;;;;5069929;28;19916;-82
2021/05/27 07:20:18;;;;;;;;;;;22.70;99.90;;;;;;5068732;28;20429;-82
2021/05/27 07:22:44;;;;;;;;;;;23.50;99.60;;;;;;5074258;28;19976;-82
2021/05/27 07:25:20;;;;;;;;;;;22.70;99.90;;;;;;5068040;28;19908;-83
2021/05/27 07:27:53;;;;;;;;;;;22.80;99.10;;;;;;5055849;28;19913;-82
2021/05/27 07:30:19;;;;;;;;;;;22.50;99.70;;;;;;5059838;28;19909;-82
2021/05/27 07:32:45;;;;;;;;;;;23.30;98.40;;;;;;5080558;28;19912;-82
2021/05/27 07:35:11;;;;;;;;;;;23.30;98.30;;;;;;5060135;28;19916;-82
2021/05/27 07:37:37;;;;;;;;;;;24.60;97.20;;;;;;5082555;28;19965;-82
2021/05/27 07:40:04;;;;;;;;;;;25.00;95.40;;;;;;5070990;28;19908;-82
2021/05/27 07:42:30;;;;;;;;;;;25.70;93.50;;;;;;5065500;28;19915;-82
2021/05/27 07:44:56;;;;;;;;;;;26.30;93.90;;;;;;5069019;28;20466;-82
2021/05/27 07:47:21;;;;;;;;;;;27.20;90.20;;;;;;5067368;28;19996;-82
2021/05/27 07:49:49;;;;;;;;;;;26.60;90.60;;;;;;5061845;28;19915;-82
2021/05/27 07:52:15;;;;;;;;;;;25.80;93.10;;;;;;5070713;28;19919;-82
2021/05/27 07:54:45;;;;;;;;;;;27.00;91.30;;;;;;5058009;28;19944;-82
2021/05/27 07:57:11;;;;;;;;;;;28.90;82.70;;;;;;5073479;28;19908;-83
2021/05/27 07:59:38;;;;;;;;;;;28.50;84.80;;;;;;5063819;28;19915;-83
2021/05/27 08:02:04;;;;;;;;;;;27.50;87.20;;;;;;5065149;28;19954;-83
2021/05/27 08:04:31;;;;;;;;;;;30.00;77.50;;;;;;5065196;28;19908;-82
2021/05/27 08:06:57;;;;;;;;;;;29.60;71.90;;;;;;5082121;28;20329;-83
2021/05/27 08:09:23;;;;;;;;;;;30.00;75.60;;;;;;5079303;28;19995;-82
2021/05/27 08:11:48;;;;;;;;;;;29.60;70.10;;;;;;5074096;28;19961;-82
2021/05/27 08:14:14;;;;;;;;;;;28.80;72.00;;;;;;5077892;28;19911;-82
2021/05/27 08:16:40;;;;;;;;;;;30.30;68.70;;;;;;5079005;28;19912;-82
2021/05/27 08:19:06;;;;;;;;;;;29.80;73.50;;;;;;5061704;28;19947;-81
2021/05/27 08:21:32;;;;;;;;;;;28.30;70.90;;;;;;5069415;28;19908;-82
2021/05/27 08:23:58;;;;;;;;;;;28.80;66.60;;;;;;5077788;28;19908;-81
2021/05/27 08:26:25;;;;;;;;;;;29.20;65.00;;;;;;5074702;28;20524;-82
2021/05/27 08:28:52;;;;;;;;;;;29.50;69.30;;;;;;5071520;28;19912;-82
2021/05/27 08:31:18;;;;;;;;;;;29.60;66.00;;;;;;5074164;28;19912;-82
2021/05/27 08:33:44;;;;;;;;;;;29.80;61.50;;;;;;5074453;28;20273;-82
2021/05/27 08:36:10;;;;;;;;;;;29.60;63.40;;;;;;5071270;28;19999;-81
2021/05/27 08:38:36;;;;;;;;;;;29.90;66.90;;;;;;5058135;28;20752;-82
2021/05/27 08:41:02;;;;;;;;;;;27.80;65.60;;;;;;5071491;28;19995;-82
2021/05/27 08:43:28;;;;;;;;;;;28.10;71.50;;;;;;5084287;28;20688;-81
2021/05/27 08:45:56;;;;;;;;;;;29.30;76.00;;;;;;5065860;28;19915;-82
2021/05/27 08:48:23;;;;;;;;;;;32.00;58.60;;;;;;5065419;28;19986;-82
2021/05/27 08:50:51;;;;;;;;;;;29.90;63.10;;;;;;5076002;28;19957;-82
2021/05/27 08:53:17;;;;;;;;;;;30.40;61.10;;;;;;5076196;28;19943;-82
2021/05/27 08:55:45;;;;;;;;;;;28.50;65.40;;;;;;5075656;28;19972;-82
2021/05/27 08:58:11;;;;;;;;;;;28.50;66.10;;;;;;5070649;28;19940;-82
2021/05/27 09:00:37;;;;;;;;;;;27.50;67.80;;;;;;5064963;28;19915;-82
2021/05/27 09:03:05;;;;;;;;;;;29.70;57.50;;;;;;5068613;28;20000;-82
2021/05/27 09:05:32;;;;;;;;;;;29.20;52.80;;;;;;5072884;28;19912;-82
2021/05/27 09:07:59;;;;;;;;;;;27.60;58.40;;;;;;5069298;28;20376;-81
2021/05/27 09:10:41;;;;;;;;;;;29.30;58.40;;;;;;5071560;28;19912;-82
2021/05/27 09:13:08;;;;;;;;;;;27.80;63.90;;;;;;5067203;28;19908;-82
2021/05/27 09:15:34;;;;;;;;;;;27.10;65.70;;;;;;5067360;28;19911;-82
2021/05/27 09:18:04;;;;;;;;;;;26.00;74.30;;;;;;5071102;28;19916;-82
2021/05/27 09:20:30;;;;;;;;;;;29.30;60.60;;;;;;5072793;28;19909;-82
2021/05/27 09:23:15;;;;;;;;;;;28.30;54.40;;;;;;5082939;28;19908;-82
2021/05/27 09:25:43;;;;;;;;;;;28.00;57.00;;;;;;5075285;28;20004;-82
2021/05/27 09:28:11;;;;;;;;;;;29.60;58.70;;;;;;5081795;28;19974;-82
2021/05/27 09:30:47;;;;;;;;;;;31.10;57.30;;;;;;5067426;28;19913;-82
2021/05/27 09:33:13;;;;;;;;;;;30.90;47.90;;;;;;5080002;28;19912;-82
2021/05/27 09:35:40;;;;;;;;;;;32.60;46.10;;;;;;5075134;28;19961;-82
2021/05/27 09:38:07;;;;;;;;;;;33.90;44.60;;;;;;5070838;28;19911;-81
2021/05/27 09:40:36;;;;;;;;;;;32.90;43.50;;;;;;5077053;28;19946;-82
2021/05/27 09:43:04;;;;;;;;;;;31.00;52.50;;;;;;5077733;28;19920;-82
2021/05/27 09:45:31;;;;;;;;;;;32.80;45.90;;;;;;5068855;28;19905;-82
2021/05/27 09:47:57;;;;;;;;;;;33.80;45.50;;;;;;5064302;28;19928;-82
2021/05/27 09:50:34;;;;;;;;;;;33.40;38.70;;;;;;5061224;28;19908;-82
2021/05/27 09:53:14;;;;;;;;;;;34.20;36.60;;;;;;5080366;28;19912;-82
2021/05/27 09:55:40;;;;;;;;;;;34.90;31.80;;;;;;5077927;28;20034;-82
2021/05/27 09:58:16;;;;;;;;;;;34.00;33.30;;;;;;5080272;28;20010;-82
2021/05/27 10:00:43;;;;;;;;;;;36.50;29.20;;;;;;5084379;28;19937;-82
2021/05/27 10:03:29;;;;;;;;;;;34.80;32.80;;;;;;5069363;28;19965;-82
2021/05/27 10:05:56;;;;;;;;;;;33.20;34.10;;;;;;5078496;28;20403;-82
2021/05/27 10:08:22;;;;;;;;;;;33.70;30.30;;;;;;5080402;28;20330;-82
2021/05/27 10:10:48;;;;;;;;;;;35.40;29.70;;;;;;5075810;28;19916;-82
2021/05/27 10:13:16;;;;;;;;;;;35.70;27.30;;;;;;5070825;28;19915;-82
2021/05/27 10:15:44;;;;;;;;;;;36.50;24.50;;;;;;5077682;28;19994;-82
2021/05/27 10:18:14;;;;;;;;;;;33.90;34.80;;;;;;5076019;28;19986;-83
2021/05/27 10:20:40;;;;;;;;;;;32.80;37.40;;;;;;5086598;28;19911;-82
2021/05/27 10:23:06;;;;;;;;;;;32.70;31.20;;;;;;5088179;28;20386;-82
2021/05/27 10:25:31;;;;;;;;;;;33.50;31.30;;;;;;5074995;28;19961;-82
2021/05/27 10:28:00;;;;;;;;;;;33.30;35.70;;;;;;5081944;28;20288;-82
2021/05/27 10:30:26;;;;;;;;;;;32.00;28.50;;;;;;5076693;28;19914;-82
2021/05/27 10:32:58;;;;;;;;;;;33.40;30.10;;;;;;5067365;28;20521;-81
2021/05/27 10:35:43;;;;;;;;;;;33.40;28.00;;;;;;5058152;28;20001;-82
2021/05/27 10:38:09;;;;;;;;;;;35.00;26.80;;;;;;5062958;28;19911;-82
2021/05/27 10:40:36;;;;;;;;;;;35.70;27.30;;;;;;5071890;28;19908;-81
2021/05/27 10:43:10;;;;;;;;;;;34.90;26.40;;;;;;5061985;28;19917;-82
2021/05/27 10:46:00;;;;;;;;;;;34.20;29.00;;;;;;5068426;28;19977;-81
2021/05/27 10:48:27;;;;;;;;;;;35.80;26.50;;;;;;5065045;28;20003;-81
2021/05/27 10:51:06;;;;;;;;;;;34.40;26.10;;;;;;5072801;28;19908;-81
2021/05/27 10:53:37;;;;;;;;;;;33.60;25.80;;;;;;5066730;28;19953;-81
2021/05/27 10:56:12;;;;;;;;;;;34.30;39.40;;;;;;5066329;28;19913;-82
2021/05/27 10:58:48;;;;;;;;;;;32.40;26.90;;;;;;5086806;28;19912;-82
2021/05/27 11:01:18;;;;;;;;;;;34.40;26.20;;;;;;5063787;28;19912;-80
2021/05/27 11:03:50;;;;;;;;;;;34.30;32.50;;;;;;5069094;28;20402;-81
2021/05/27 11:06:17;;;;;;;;;;;33.10;28.90;;;;;;5063955;28;19908;-81
2021/05/27 11:08:43;;;;;;;;;;;32.70;33.40;;;;;;5064255;28;19908;-82
2021/05/27 11:11:29;;;;;;;;;;;32.70;30.90;;;;;;5061578;28;19904;-81
2021/05/27 11:14:13;;;;;;;;;;;32.40;31.40;;;;;;5064281;28;19908;-82
2021/05/27 11:16:58;;;;;;;;;;;32.70;31.50;;;;;;5062960;28;19912;-82
2021/05/27 11:19:53;;;;;;;;;;;31.80;35.70;;;;;;5056398;28;19963;-82
2021/05/27 11:27:41;;;;;;;;;;;29.60;40.00;;;;;;5069525;28;19908;-81
2021/05/27 11:30:19;;;;;;;;;;;25.10;48.10;;;;;;5057104;28;19962;-81
2021/05/27 11:32:48;;;;;;;;;;;23.80;53.80;;;;;;5066868;28;19924;-80
2021/05/27 11:35:14;;;;;;;;;;;23.60;52.50;;;;;;5071611;28;19999;-80
2021/05/27 11:37:40;;;;;;;;;;;23.40;53.50;;;;;;5070948;28;19912;-80
2021/05/27 11:40:08;;;;;;;;;;;23.20;54.30;;;;;;5074636;28;20027;-80
2021/05/27 11:42:35;;;;;;;;;;;22.90;55.90;;;;;;5072450;28;20374;-80
2021/05/27 11:45:04;;;;;;;;;;;23.00;58.10;;;;;;5080179;28;20288;-80
2021/05/27 11:47:30;;;;;;;;;;;22.40;59.50;;;;;;5067331;28;19909;-82
2021/05/27 11:50:09;;;;;;;;;;;22.30;59.10;;;;;;5064941;28;20411;-82
2021/05/27 11:52:41;;;;;;;;;;;22.30;59.00;;;;;;5065639;28;19913;-82
2021/05/27 11:55:11;;;;;;;;;;;22.80;59.90;;;;;;5068367;28;19909;-82
2021/05/27 11:57:43;;;;;;;;;;;22.80;59.40;;;;;;5067879;28;19947;-84
2021/05/27 12:00:11;;;;;;;;;;;22.70;60.80;;;;;;5074758;28;19926;-83
2021/05/27 12:02:52;;;;;;;;;;;22.50;61.30;;;;;;5070423;28;19913;-83
2021/05/27 12:05:27;;;;;;;;;;;22.50;62.80;;;;;;5066158;28;19909;-83
2021/05/27 12:08:03;;;;;;;;;;;22.50;62.30;;;;;;5075023;28;19912;-82
2021/05/27 12:10:30;;;;;;;;;;;22.60;63.60;;;;;;5070274;28;19916;-83
2021/05/27 12:12:56;;;;;;;;;;;22.60;61.00;;;;;;5058901;28;20364;-83
2021/05/27 12:15:22;;;;;;;;;;;22.50;60.20;;;;;;5071304;28;19916;-82
2021/05/27 12:17:52;;;;;;;;;;;22.50;62.50;;;;;;5078043;28;19913;-83
2021/05/27 12:20:26;;;;;;;;;;;22.50;63.40;;;;;;5078316;28;19912;-83
2021/05/27 12:22:55;;;;;;;;;;;22.60;63.20;;;;;;5068357;28;19990;-83
2021/05/27 12:25:23;;;;;;;;;;;22.60;61.80;;;;;;5075084;28;19947;-83
2021/05/27 12:27:50;;;;;;;;;;;22.60;63.40;;;;;;5078352;28;19908;-83
2021/05/27 12:30:21;;;;;;;;;;;22.40;62.20;;;;;;5084729;28;19912;-83
2021/05/27 12:32:48;;;;;;;;;;;22.00;61.50;;;;;;5076814;28;20337;-83
2021/05/27 12:35:15;;;;;;;;;;;22.20;75.40;;;;;;5061309;28;19912;-83
2021/05/27 12:37:47;;;;;;;;;;;22.10;63.20;;;;;;5074512;28;19910;-83
2021/05/27 12:40:17;;;;;;;;;;;22.20;62.10;;;;;;5074770;28;19908;-83
2021/05/27 12:42:43;;;;;;;;;;;21.60;63.70;;;;;;5075369;28;19981;-83
2021/05/27 12:45:41;;;;;;;;;;;21.60;62.10;;;;;;5082669;28;19912;-83
2021/05/27 12:48:08;;;;;;;;;;;21.70;62.90;;;;;;5055128;28;19956;-83
2021/05/27 12:50:34;;;;;;;;;;;21.60;62.70;;;;;;5067816;28;19908;-83
2021/05/27 12:53:00;;;;;;;;;;;21.60;62.00;;;;;;5054175;28;19940;-82
2021/05/27 12:55:29;;;;;;;;;;;21.90;63.40;;;;;;5054059;28;19958;-83
2021/05/27 12:58:00;;;;;;;;;;;22.00;63.00;;;;;;5054487;28;19922;-83
2021/05/27 13:00:27;;;;;;;;;;;21.90;64.00;;;;;;5029735;28;19908;-82
2021/05/27 13:03:03;;;;;;;;;;;21.90;62.40;;;;;;5049876;28;19970;-82
2021/05/27 13:05:29;;;;;;;;;;;21.80;63.00;;;;;;5048426;28;19916;-82
2021/05/27 13:07:56;;;;;;;;;;;21.80;61.80;;;;;;5055825;28;20314;-82
2021/05/27 13:10:29;;;;;;;;;;;21.80;62.10;;;;;;5059580;28;20553;-82
2021/05/27 13:12:55;;;;;;;;;;;21.70;62.70;;;;;;5054630;28;19970;-83
2021/05/27 13:15:22;;;;;;;;;;;22.10;64.70;;;;;;5043343;28;19946;-83
2021/05/27 13:18:20;;;;;;;;;;;22.10;63.90;;;;;;5047625;28;19908;-83
2021/05/27 13:21:03;;;;;;;;;;;21.80;63.50;;;;;;4973424;28;19956;-83
2021/05/27 13:23:28;;;;;;;;;;;21.90;66.40;;;;;;4997793;28;20036;-83
2021/05/27 13:26:15;;;;;;;;;;;22.10;64.10;;;;;;5014822;28;20004;-82
2021/05/27 13:28:42;;;;;;;;;;;21.90;66.00;;;;;;5004451;28;19912;-83
2021/05/27 13:31:08;;;;;;;;;;;21.80;65.20;;;;;;5009481;28;19945;-82
2021/05/27 13:33:34;;;;;;;;;;;21.70;66.30;;;;;;5018796;28;19996;-83
2021/05/27 13:36:02;;;;;;;;;;;21.70;63.90;;;;;;5008043;28;19996;-82
2021/05/27 13:38:30;;;;;;;;;;;21.40;64.90;;;;;;5008424;28;19913;-82
2021/05/27 13:40:57;;;;;;;;;;;21.40;65.00;;;;;;5021569;28;19959;-82
2021/05/27 13:43:28;;;;;;;;;;;21.50;65.30;;;;;;5018443;28;19917;-82
2021/05/27 13:45:54;;;;;;;;;;;21.50;65.20;;;;;;5014569;28;19913;-82
2021/05/27 13:48:20;;;;;;;;;;;21.50;63.60;;;;;;5011163;28;19906;-83
2021/05/27 13:50:46;;;;;;;;;;;21.40;63.00;;;;;;5014349;28;19953;-80
2021/05/27 13:53:12;;;;;;;;;;;21.40;63.90;;;;;;5008333;28;20500;-82
2021/05/27 13:55:53;;;;;;;;;;;21.60;63.90;;;;;;5002537;28;20049;-82
2021/05/27 13:58:21;;;;;;;;;;;21.30;63.30;;;;;;5072866;28;19909;-82
2021/05/27 14:00:47;;;;;;;;;;;21.40;64.90;;;;;;5059007;28;19913;-82
2021/05/27 14:03:13;;;;;;;;;;;21.80;64.80;;;;;;5066502;28;19992;-85
2021/05/27 14:05:39;;;;;;;;;;;21.70;64.60;;;;;;5066685;28;20376;-80
2021/05/27 14:08:05;;;;;;;;;;;21.60;64.40;;;;;;5080984;28;19916;-83
2021/05/27 14:10:31;;;;;;;;;;;21.50;64.80;;;;;;5062899;28;20295;-82
2021/05/27 14:12:56;;;;;;;;;;;21.20;62.10;;;;;;5059041;28;20749;-81
2021/05/27 14:15:22;;;;;;;;;;;21.10;62.80;;;;;;5069282;28;19961;-82
2021/05/27 14:17:48;;;;;;;;;;;21.10;62.10;;;;;;5064376;28;19912;-82
2021/05/27 14:20:15;;;;;;;;;;;21.10;62.60;;;;;;5056950;28;19912;-82
2021/05/27 14:22:42;;;;;;;;;;;21.10;63.40;;;;;;5052088;28;19994;-82
2021/05/27 14:25:11;;;;;;;;;;;21.20;63.50;;;;;;5065216;28;20032;-82
2021/05/27 14:27:37;;;;;;;;;;;21.10;63.70;;;;;;5060828;28;20007;-82
2021/05/27 14:30:05;;;;;;;;;;;21.20;64.30;;;;;;5068173;28;19950;-82
2021/05/27 14:32:33;;;;;;;;;;;21.10;64.00;;;;;;5073409;28;20676;-82
2021/05/27 14:34:59;;;;;;;;;;;21.10;63.50;;;;;;5060743;28;19917;-82
2021/05/27 14:37:26;;;;;;;;;;;21.20;63.10;;;;;;5062510;28;19911;-82